sensor_id;sensor_type;location;lat;lon;timestamp;P1;durP1;ratioP1;P2;durP2;ratioP2
1404;SDS011;697;51.114;6.542;2023-02-23T00:01:08;43.43;;;36.00;;
1404;SDS011;697;51.114;6.542;2023-02-23T00:03:37;44.97;;;36.50;;
1404;SDS011;697;51.114;6.542;2023-02-23T00:06:04;40.17;;;33.60;;
1404;SDS011;697;51.114;6.542;2023-02-23T00:08:33;41.93;;;36.47;;
1404;SDS011;697;51.114;6.542;2023-02-23T00:11:01;41.33;;;35.73;;
1404;SDS011;697;51.114;6.542;2023-02-23T00:13:29;41.13;;;35.00;;
1404;SDS011;697;51.114;6.542;2023-02-23T00:15:56;39.73;;;34.40;;
1404;SDS011;697;51.114;6.542;2023-02-23T00:18:23;40.50;;;33.87;;
1404;SDS011;697;51.114;6.542;2023-02-23T00:20:54;39.60;;;34.13;;
1404;SDS011;697;51.114;6.542;2023-02-23T00:23:22;41.33;;;33.00;;
1404;SDS011;697;51.114;6.542;2023-02-23T00:25:52;40.20;;;34.13;;
1404;SDS011;697;51.114;6.542;2023-02-23T00:28:20;41.50;;;32.30;;
1404;SDS011;697;51.114;6.542;2023-02-23T00:30:47;39.27;;;34.00;;
1404;SDS011;697;51.114;6.542;2023-02-23T00:33:13;39.60;;;34.30;;
1404;SDS011;697;51.114;6.542;2023-02-23T00:35:40;41.40;;;33.77;;
1404;SDS011;697;51.114;6.542;2023-02-23T00:38:08;41.53;;;33.57;;
1404;SDS011;697;51.114;6.542;2023-02-23T00:40:34;36.80;;;32.30;;
1404;SDS011;697;51.114;6.542;2023-02-23T00:45:39;41.13;;;33.30;;
1404;SDS011;697;51.114;6.542;2023-02-23T00:48:05;40.40;;;33.70;;
1404;SDS011;697;51.114;6.542;2023-02-23T00:50:35;41.20;;;35.40;;
1404;SDS011;697;51.114;6.542;2023-02-23T00:53:05;39.10;;;33.63;;
1404;SDS011;697;51.114;6.542;2023-02-23T00:55:39;39.60;;;34.83;;
1404;SDS011;697;51.114;6.542;2023-02-23T00:58:06;40.33;;;35.60;;
1404;SDS011;697;51.114;6.542;2023-02-23T01:00:40;37.53;;;33.50;;
1404;SDS011;697;51.114;6.542;2023-02-23T01:03:07;46.30;;;36.37;;
1404;SDS011;697;51.114;6.542;2023-02-23T01:05:34;40.90;;;35.37;;
1404;SDS011;697;51.114;6.542;2023-02-23T01:08:01;41.67;;;33.37;;
1404;SDS011;697;51.114;6.542;2023-02-23T01:10:28;40.20;;;33.87;;
1404;SDS011;697;51.114;6.542;2023-02-23T01:12:55;42.20;;;36.30;;
1404;SDS011;697;51.114;6.542;2023-02-23T01:15:21;49.23;;;40.20;;
1404;SDS011;697;51.114;6.542;2023-02-23T01:18:04;46.03;;;37.87;;
1404;SDS011;697;51.114;6.542;2023-02-23T01:20:33;47.87;;;37.03;;
1404;SDS011;697;51.114;6.542;2023-02-23T01:23:01;42.70;;;36.20;;
1404;SDS011;697;51.114;6.542;2023-02-23T01:25:28;39.70;;;33.97;;
1404;SDS011;697;51.114;6.542;2023-02-23T01:27:55;42.93;;;35.60;;
1404;SDS011;697;51.114;6.542;2023-02-23T01:30:22;46.60;;;38.23;;
1404;SDS011;697;51.114;6.542;2023-02-23T01:32:49;47.27;;;39.60;;
1404;SDS011;697;51.114;6.542;2023-02-23T01:35:17;44.60;;;36.37;;
1404;SDS011;697;51.114;6.542;2023-02-23T01:37:44;41.73;;;36.03;;
1404;SDS011;697;51.114;6.542;2023-02-23T01:40:12;44.80;;;37.73;;
1404;SDS011;697;51.114;6.542;2023-02-23T01:42:53;46.43;;;37.07;;
1404;SDS011;697;51.114;6.542;2023-02-23T01:45:26;44.60;;;38.23;;
1404;SDS011;697;51.114;6.542;2023-02-23T01:47:56;46.47;;;37.00;;
1404;SDS011;697;51.114;6.542;2023-02-23T01:50:28;44.60;;;36.30;;
1404;SDS011;697;51.114;6.542;2023-02-23T01:52:58;43.47;;;36.10;;
1404;SDS011;697;51.114;6.542;2023-02-23T01:55:25;42.67;;;36.33;;
1404;SDS011;697;51.114;6.542;2023-02-23T01:57:55;44.20;;;38.10;;
1404;SDS011;697;51.114;6.542;2023-02-23T02:00:26;40.77;;;35.33;;
1404;SDS011;697;51.114;6.542;2023-02-23T02:02:55;43.93;;;36.60;;
1404;SDS011;697;51.114;6.542;2023-02-23T02:05:23;42.87;;;35.50;;
1404;SDS011;697;51.114;6.542;2023-02-23T02:07:53;43.57;;;34.60;;
1404;SDS011;697;51.114;6.542;2023-02-23T02:10:23;40.40;;;34.10;;
1404;SDS011;697;51.114;6.542;2023-02-23T02:13:11;41.60;;;32.93;;
1404;SDS011;697;51.114;6.542;2023-02-23T02:15:47;42.87;;;35.80;;
1404;SDS011;697;51.114;6.542;2023-02-23T02:18:30;43.90;;;36.87;;
1404;SDS011;697;51.114;6.542;2023-02-23T02:24:10;45.13;;;37.43;;
1404;SDS011;697;51.114;6.542;2023-02-23T02:26:57;47.33;;;34.87;;
1404;SDS011;697;51.114;6.542;2023-02-23T02:29:49;45.30;;;39.20;;
1404;SDS011;697;51.114;6.542;2023-02-23T02:33:06;45.57;;;38.23;;
1404;SDS011;697;51.114;6.542;2023-02-23T02:36:03;45.10;;;37.43;;
1404;SDS011;697;51.114;6.542;2023-02-23T02:38:58;52.80;;;41.10;;
1404;SDS011;697;51.114;6.542;2023-02-23T02:41:35;54.10;;;42.23;;
1404;SDS011;697;51.114;6.542;2023-02-23T02:44:10;51.37;;;40.47;;
1404;SDS011;697;51.114;6.542;2023-02-23T02:46:41;48.23;;;41.50;;
1404;SDS011;697;51.114;6.542;2023-02-23T02:49:13;51.03;;;41.13;;
1404;SDS011;697;51.114;6.542;2023-02-23T02:51:45;58.07;;;42.60;;
1404;SDS011;697;51.114;6.542;2023-02-23T02:54:19;51.20;;;40.17;;
1404;SDS011;697;51.114;6.542;2023-02-23T02:56:50;51.10;;;41.50;;
1404;SDS011;697;51.114;6.542;2023-02-23T02:59:21;46.70;;;38.87;;
1404;SDS011;697;51.114;6.542;2023-02-23T03:02:08;52.43;;;41.77;;
1404;SDS011;697;51.114;6.542;2023-02-23T03:04:58;53.50;;;41.93;;
1404;SDS011;697;51.114;6.542;2023-02-23T03:07:44;49.93;;;39.83;;
1404;SDS011;697;51.114;6.542;2023-02-23T03:10:40;47.10;;;37.47;;
1404;SDS011;697;51.114;6.542;2023-02-23T03:13:31;49.93;;;38.77;;
1404;SDS011;697;51.114;6.542;2023-02-23T03:16:29;45.13;;;38.23;;
1404;SDS011;697;51.114;6.542;2023-02-23T03:19:22;53.80;;;41.30;;
1404;SDS011;697;51.114;6.542;2023-02-23T03:22:13;51.83;;;41.97;;
1404;SDS011;697;51.114;6.542;2023-02-23T03:25:04;54.93;;;42.17;;
1404;SDS011;697;51.114;6.542;2023-02-23T03:27:55;54.20;;;42.43;;
1404;SDS011;697;51.114;6.542;2023-02-23T03:30:47;55.93;;;43.77;;
1404;SDS011;697;51.114;6.542;2023-02-23T03:33:38;65.67;;;44.93;;
1404;SDS011;697;51.114;6.542;2023-02-23T03:36:28;60.30;;;44.47;;
1404;SDS011;697;51.114;6.542;2023-02-23T03:39:19;60.70;;;43.47;;
1404;SDS011;697;51.114;6.542;2023-02-23T03:42:10;61.33;;;44.27;;
1404;SDS011;697;51.114;6.542;2023-02-23T03:45:02;55.63;;;42.47;;
1404;SDS011;697;51.114;6.542;2023-02-23T03:47:48;52.77;;;41.70;;
1404;SDS011;697;51.114;6.542;2023-02-23T03:50:36;65.27;;;47.03;;
1404;SDS011;697;51.114;6.542;2023-02-23T03:53:25;62.30;;;43.83;;
1404;SDS011;697;51.114;6.542;2023-02-23T03:56:15;57.87;;;44.77;;
1404;SDS011;697;51.114;6.542;2023-02-23T03:59:00;62.47;;;44.17;;
1404;SDS011;697;51.114;6.542;2023-02-23T04:04:38;63.23;;;45.37;;
1404;SDS011;697;51.114;6.542;2023-02-23T04:07:24;61.17;;;43.40;;
1404;SDS011;697;51.114;6.542;2023-02-23T04:10:09;60.37;;;43.90;;
1404;SDS011;697;51.114;6.542;2023-02-23T04:12:55;57.33;;;43.53;;
1404;SDS011;697;51.114;6.542;2023-02-23T04:15:41;63.40;;;46.80;;
1404;SDS011;697;51.114;6.542;2023-02-23T04:18:14;57.90;;;44.20;;
1404;SDS011;697;51.114;6.542;2023-02-23T04:20:43;59.97;;;42.77;;
1404;SDS011;697;51.114;6.542;2023-02-23T04:23:09;55.00;;;42.07;;
1404;SDS011;697;51.114;6.542;2023-02-23T04:25:36;66.03;;;47.83;;
1404;SDS011;697;51.114;6.542;2023-02-23T04:28:05;59.73;;;43.70;;
1404;SDS011;697;51.114;6.542;2023-02-23T04:30:32;62.80;;;46.07;;
1404;SDS011;697;51.114;6.542;2023-02-23T04:32:58;58.73;;;43.70;;
1404;SDS011;697;51.114;6.542;2023-02-23T04:35:27;59.63;;;43.53;;
1404;SDS011;697;51.114;6.542;2023-02-23T04:37:55;56.27;;;43.13;;
1404;SDS011;697;51.114;6.542;2023-02-23T04:40:22;60.80;;;45.23;;
1404;SDS011;697;51.114;6.542;2023-02-23T04:42:49;59.70;;;44.90;;
1404;SDS011;697;51.114;6.542;2023-02-23T04:45:16;60.97;;;43.70;;
1404;SDS011;697;51.114;6.542;2023-02-23T04:47:43;64.13;;;44.43;;
1404;SDS011;697;51.114;6.542;2023-02-23T04:50:10;58.10;;;45.57;;
1404;SDS011;697;51.114;6.542;2023-02-23T04:52:39;66.07;;;46.90;;
1404;SDS011;697;51.114;6.542;2023-02-23T04:55:06;60.90;;;41.83;;
1404;SDS011;697;51.114;6.542;2023-02-23T04:57:34;62.33;;;45.67;;
1404;SDS011;697;51.114;6.542;2023-02-23T05:00:01;62.37;;;46.20;;
1404;SDS011;697;51.114;6.542;2023-02-23T05:02:29;56.80;;;43.93;;
1404;SDS011;697;51.114;6.542;2023-02-23T05:04:56;64.87;;;45.43;;
1404;SDS011;697;51.114;6.542;2023-02-23T05:07:22;58.80;;;43.60;;
1404;SDS011;697;51.114;6.542;2023-02-23T05:09:50;55.43;;;41.30;;
1404;SDS011;697;51.114;6.542;2023-02-23T05:12:17;58.73;;;43.50;;
1404;SDS011;697;51.114;6.542;2023-02-23T05:14:44;64.73;;;46.87;;
1404;SDS011;697;51.114;6.542;2023-02-23T05:17:11;61.63;;;43.67;;
1404;SDS011;697;51.114;6.542;2023-02-23T05:19:38;58.93;;;45.47;;
1404;SDS011;697;51.114;6.542;2023-02-23T05:22:07;58.90;;;44.70;;
1404;SDS011;697;51.114;6.542;2023-02-23T05:24:36;66.37;;;46.67;;
1404;SDS011;697;51.114;6.542;2023-02-23T05:27:04;56.93;;;44.03;;
1404;SDS011;697;51.114;6.542;2023-02-23T05:29:31;63.80;;;48.47;;
1404;SDS011;697;51.114;6.542;2023-02-23T05:31:58;60.70;;;45.57;;
1404;SDS011;697;51.114;6.542;2023-02-23T05:34:26;60.03;;;44.30;;
1404;SDS011;697;51.114;6.542;2023-02-23T05:36:53;62.07;;;45.13;;
1404;SDS011;697;51.114;6.542;2023-02-23T05:39:20;56.03;;;42.87;;
1404;SDS011;697;51.114;6.542;2023-02-23T05:41:47;68.77;;;46.00;;
1404;SDS011;697;51.114;6.542;2023-02-23T05:44:15;60.33;;;44.87;;
1404;SDS011;697;51.114;6.542;2023-02-23T05:46:44;59.40;;;43.70;;
1404;SDS011;697;51.114;6.542;2023-02-23T05:49:11;57.53;;;41.27;;
1404;SDS011;697;51.114;6.542;2023-02-23T05:51:38;57.90;;;41.97;;
1404;SDS011;697;51.114;6.542;2023-02-23T05:54:05;55.87;;;42.07;;
1404;SDS011;697;51.114;6.542;2023-02-23T05:56:32;55.93;;;42.80;;
1404;SDS011;697;51.114;6.542;2023-02-23T05:58:59;56.13;;;43.00;;
1404;SDS011;697;51.114;6.542;2023-02-23T06:01:27;50.97;;;42.40;;
1404;SDS011;697;51.114;6.542;2023-02-23T06:03:54;54.97;;;41.30;;
1404;SDS011;697;51.114;6.542;2023-02-23T06:06:21;53.73;;;41.37;;
1404;SDS011;697;51.114;6.542;2023-02-23T06:08:49;48.83;;;40.90;;
1404;SDS011;697;51.114;6.542;2023-02-23T06:11:16;55.00;;;43.90;;
1404;SDS011;697;51.114;6.542;2023-02-23T06:13:43;55.93;;;42.70;;
1404;SDS011;697;51.114;6.542;2023-02-23T06:16:13;53.47;;;42.23;;
1404;SDS011;697;51.114;6.542;2023-02-23T06:18:41;53.23;;;41.70;;
1404;SDS011;697;51.114;6.542;2023-02-23T06:21:07;54.70;;;42.07;;
1404;SDS011;697;51.114;6.542;2023-02-23T06:23:34;52.40;;;42.07;;
1404;SDS011;697;51.114;6.542;2023-02-23T06:26:01;60.07;;;40.13;;
1404;SDS011;697;51.114;6.542;2023-02-23T06:28:28;53.90;;;41.33;;
1404;SDS011;697;51.114;6.542;2023-02-23T06:30:55;56.63;;;42.20;;
1404;SDS011;697;51.114;6.542;2023-02-23T06:33:22;55.70;;;40.80;;
1404;SDS011;697;51.114;6.542;2023-02-23T06:35:51;57.43;;;41.27;;
1404;SDS011;697;51.114;6.542;2023-02-23T06:38:18;57.13;;;41.00;;
1404;SDS011;697;51.114;6.542;2023-02-23T06:40:48;56.20;;;41.67;;
1404;SDS011;697;51.114;6.542;2023-02-23T06:43:15;52.60;;;41.33;;
1404;SDS011;697;51.114;6.542;2023-02-23T06:45:42;52.20;;;40.27;;
1404;SDS011;697;51.114;6.542;2023-02-23T06:48:10;48.43;;;39.57;;
1404;SDS011;697;51.114;6.542;2023-02-23T06:50:36;55.60;;;43.73;;
1404;SDS011;697;51.114;6.542;2023-02-23T06:53:04;53.73;;;41.57;;
1404;SDS011;697;51.114;6.542;2023-02-23T06:55:31;53.30;;;41.50;;
1404;SDS011;697;51.114;6.542;2023-02-23T06:57:58;53.50;;;42.50;;
1404;SDS011;697;51.114;6.542;2023-02-23T07:00:26;51.83;;;38.60;;
1404;SDS011;697;51.114;6.542;2023-02-23T07:02:55;54.30;;;40.40;;
1404;SDS011;697;51.114;6.542;2023-02-23T07:05:22;51.77;;;39.83;;
1404;SDS011;697;51.114;6.542;2023-02-23T07:07:48;50.00;;;39.47;;
1404;SDS011;697;51.114;6.542;2023-02-23T07:10:17;47.57;;;38.30;;
1404;SDS011;697;51.114;6.542;2023-02-23T07:12:44;50.00;;;37.50;;
1404;SDS011;697;51.114;6.542;2023-02-23T07:15:11;46.60;;;37.03;;
1404;SDS011;697;51.114;6.542;2023-02-23T07:17:43;46.10;;;37.27;;
1404;SDS011;697;51.114;6.542;2023-02-23T07:20:13;44.73;;;36.10;;
1404;SDS011;697;51.114;6.542;2023-02-23T07:22:40;48.70;;;37.87;;
1404;SDS011;697;51.114;6.542;2023-02-23T07:25:08;45.00;;;36.30;;
1404;SDS011;697;51.114;6.542;2023-02-23T07:27:37;47.07;;;35.67;;
1404;SDS011;697;51.114;6.542;2023-02-23T07:30:06;46.73;;;35.73;;
1404;SDS011;697;51.114;6.542;2023-02-23T07:32:34;49.27;;;37.27;;
1404;SDS011;697;51.114;6.542;2023-02-23T07:35:01;45.20;;;35.07;;
1404;SDS011;697;51.114;6.542;2023-02-23T07:37:29;42.80;;;35.13;;
1404;SDS011;697;51.114;6.542;2023-02-23T07:39:56;42.07;;;35.73;;
1404;SDS011;697;51.114;6.542;2023-02-23T07:42:23;40.67;;;34.23;;
1404;SDS011;697;51.114;6.542;2023-02-23T07:44:52;43.00;;;34.43;;
1404;SDS011;697;51.114;6.542;2023-02-23T07:47:19;44.00;;;34.47;;
1404;SDS011;697;51.114;6.542;2023-02-23T07:49:47;40.97;;;34.03;;
1404;SDS011;697;51.114;6.542;2023-02-23T07:52:16;41.97;;;33.97;;
1404;SDS011;697;51.114;6.542;2023-02-23T07:54:43;38.60;;;33.07;;
1404;SDS011;697;51.114;6.542;2023-02-23T07:57:10;42.47;;;33.70;;
1404;SDS011;697;51.114;6.542;2023-02-23T07:59:36;39.57;;;33.67;;
1404;SDS011;697;51.114;6.542;2023-02-23T08:02:06;40.53;;;34.00;;
1404;SDS011;697;51.114;6.542;2023-02-23T08:04:32;38.43;;;32.30;;
1404;SDS011;697;51.114;6.542;2023-02-23T08:06:59;37.10;;;31.97;;
1404;SDS011;697;51.114;6.542;2023-02-23T08:09:26;38.80;;;31.50;;
1404;SDS011;697;51.114;6.542;2023-02-23T08:11:54;38.00;;;32.70;;
1404;SDS011;697;51.114;6.542;2023-02-23T08:14:22;36.63;;;31.20;;
1404;SDS011;697;51.114;6.542;2023-02-23T08:16:49;36.20;;;30.60;;
1404;SDS011;697;51.114;6.542;2023-02-23T08:19:17;39.87;;;32.70;;
1404;SDS011;697;51.114;6.542;2023-02-23T08:21:46;48.67;;;35.20;;
1404;SDS011;697;51.114;6.542;2023-02-23T08:24:13;50.90;;;35.77;;
1404;SDS011;697;51.114;6.542;2023-02-23T08:26:40;51.60;;;37.53;;
1404;SDS011;697;51.114;6.542;2023-02-23T08:29:08;55.70;;;38.60;;
1404;SDS011;697;51.114;6.542;2023-02-23T08:31:35;61.37;;;40.43;;
1404;SDS011;697;51.114;6.542;2023-02-23T08:34:02;60.73;;;41.97;;
1404;SDS011;697;51.114;6.542;2023-02-23T08:36:30;63.07;;;41.07;;
1404;SDS011;697;51.114;6.542;2023-02-23T08:38:57;70.33;;;43.10;;
1404;SDS011;697;51.114;6.542;2023-02-23T08:41:24;62.07;;;40.60;;
1404;SDS011;697;51.114;6.542;2023-02-23T08:43:51;60.40;;;38.80;;
1404;SDS011;697;51.114;6.542;2023-02-23T08:46:18;56.90;;;39.00;;
1404;SDS011;697;51.114;6.542;2023-02-23T08:48:47;62.07;;;39.27;;
1404;SDS011;697;51.114;6.542;2023-02-23T08:51:14;60.03;;;39.47;;
1404;SDS011;697;51.114;6.542;2023-02-23T08:53:42;58.17;;;38.47;;
1404;SDS011;697;51.114;6.542;2023-02-23T08:56:09;64.30;;;40.70;;
1404;SDS011;697;51.114;6.542;2023-02-23T08:58:36;59.27;;;37.10;;
1404;SDS011;697;51.114;6.542;2023-02-23T09:01:03;59.67;;;39.50;;
1404;SDS011;697;51.114;6.542;2023-02-23T09:03:31;59.73;;;39.53;;
1404;SDS011;697;51.114;6.542;2023-02-23T09:06:04;55.83;;;38.80;;
1404;SDS011;697;51.114;6.542;2023-02-23T09:08:33;55.73;;;38.63;;
1404;SDS011;697;51.114;6.542;2023-02-23T09:11:01;59.23;;;37.80;;
1404;SDS011;697;51.114;6.542;2023-02-23T09:13:28;56.10;;;36.73;;
1404;SDS011;697;51.114;6.542;2023-02-23T09:15:54;61.07;;;37.70;;
1404;SDS011;697;51.114;6.542;2023-02-23T09:18:21;59.20;;;38.07;;
1404;SDS011;697;51.114;6.542;2023-02-23T09:20:52;59.03;;;38.53;;
1404;SDS011;697;51.114;6.542;2023-02-23T09:23:19;59.83;;;36.73;;
1404;SDS011;697;51.114;6.542;2023-02-23T09:25:45;60.80;;;38.10;;
1404;SDS011;697;51.114;6.542;2023-02-23T09:28:14;61.37;;;38.90;;
1404;SDS011;697;51.114;6.542;2023-02-23T09:30:43;56.77;;;36.63;;
1404;SDS011;697;51.114;6.542;2023-02-23T09:33:11;62.10;;;38.33;;
1404;SDS011;697;51.114;6.542;2023-02-23T09:35:38;55.33;;;36.73;;
1404;SDS011;697;51.114;6.542;2023-02-23T09:38:06;55.60;;;36.43;;
1404;SDS011;697;51.114;6.542;2023-02-23T09:40:34;58.73;;;37.60;;
1404;SDS011;697;51.114;6.542;2023-02-23T09:43:10;54.97;;;35.30;;
1404;SDS011;697;51.114;6.542;2023-02-23T09:45:43;62.43;;;36.87;;
1404;SDS011;697;51.114;6.542;2023-02-23T09:48:16;58.90;;;36.13;;
1404;SDS011;697;51.114;6.542;2023-02-23T09:50:46;55.47;;;34.63;;
1404;SDS011;697;51.114;6.542;2023-02-23T09:53:31;54.23;;;33.67;;
1404;SDS011;697;51.114;6.542;2023-02-23T09:56:03;61.00;;;38.07;;
1404;SDS011;697;51.114;6.542;2023-02-23T09:58:34;52.07;;;32.43;;
1404;SDS011;697;51.114;6.542;2023-02-23T10:04:04;56.73;;;34.67;;
1404;SDS011;697;51.114;6.542;2023-02-23T10:06:34;54.13;;;34.20;;
1404;SDS011;697;51.114;6.542;2023-02-23T10:09:04;55.00;;;34.47;;
1404;SDS011;697;51.114;6.542;2023-02-23T10:11:39;49.00;;;31.17;;
1404;SDS011;697;51.114;6.542;2023-02-23T10:14:22;49.47;;;32.03;;
1404;SDS011;697;51.114;6.542;2023-02-23T10:17:04;51.87;;;31.37;;
1404;SDS011;697;51.114;6.542;2023-02-23T10:19:46;48.93;;;29.73;;
1404;SDS011;697;51.114;6.542;2023-02-23T10:22:18;50.30;;;30.00;;
1404;SDS011;697;51.114;6.542;2023-02-23T10:24:48;52.47;;;32.93;;
1404;SDS011;697;51.114;6.542;2023-02-23T10:27:24;54.23;;;30.27;;
1404;SDS011;697;51.114;6.542;2023-02-23T10:29:56;52.60;;;31.80;;
1404;SDS011;697;51.114;6.542;2023-02-23T10:32:28;50.37;;;32.33;;
1404;SDS011;697;51.114;6.542;2023-02-23T10:35:04;51.27;;;30.43;;
1404;SDS011;697;51.114;6.542;2023-02-23T10:37:36;55.20;;;33.40;;
1404;SDS011;697;51.114;6.542;2023-02-23T10:40:04;57.97;;;38.07;;
1404;SDS011;697;51.114;6.542;2023-02-23T10:42:31;58.17;;;36.00;;
1404;SDS011;697;51.114;6.542;2023-02-23T10:44:59;55.80;;;32.80;;
1404;SDS011;697;51.114;6.542;2023-02-23T10:47:27;58.27;;;35.80;;
1404;SDS011;697;51.114;6.542;2023-02-23T10:50:03;64.17;;;37.33;;
1404;SDS011;697;51.114;6.542;2023-02-23T10:52:32;60.80;;;37.67;;
1404;SDS011;697;51.114;6.542;2023-02-23T10:55:06;60.90;;;37.10;;
1404;SDS011;697;51.114;6.542;2023-02-23T10:57:47;68.27;;;39.30;;
1404;SDS011;697;51.114;6.542;2023-02-23T11:00:26;60.80;;;36.60;;
1404;SDS011;697;51.114;6.542;2023-02-23T11:02:58;61.20;;;35.23;;
1404;SDS011;697;51.114;6.542;2023-02-23T11:05:30;71.43;;;37.73;;
1404;SDS011;697;51.114;6.542;2023-02-23T11:11:00;56.23;;;33.70;;
1404;SDS011;697;51.114;6.542;2023-02-23T11:13:33;51.83;;;32.60;;
1404;SDS011;697;51.114;6.542;2023-02-23T11:16:05;56.27;;;33.80;;
1404;SDS011;697;51.114;6.542;2023-02-23T11:18:36;53.83;;;31.60;;
1404;SDS011;697;51.114;6.542;2023-02-23T11:21:09;55.70;;;31.63;;
1404;SDS011;697;51.114;6.542;2023-02-23T11:23:38;47.73;;;29.80;;
1404;SDS011;697;51.114;6.542;2023-02-23T11:26:19;59.43;;;33.57;;
1404;SDS011;697;51.114;6.542;2023-02-23T11:28:52;47.07;;;28.30;;
1404;SDS011;697;51.114;6.542;2023-02-23T11:31:22;51.93;;;30.10;;
1404;SDS011;697;51.114;6.542;2023-02-23T11:33:57;50.00;;;31.27;;
1404;SDS011;697;51.114;6.542;2023-02-23T11:36:26;48.57;;;28.53;;
1404;SDS011;697;51.114;6.542;2023-02-23T11:39:02;48.10;;;30.00;;
1404;SDS011;697;51.114;6.542;2023-02-23T11:41:32;50.00;;;31.57;;
1404;SDS011;697;51.114;6.542;2023-02-23T11:44:01;49.97;;;30.57;;
1404;SDS011;697;51.114;6.542;2023-02-23T11:46:29;46.87;;;30.80;;
1404;SDS011;697;51.114;6.542;2023-02-23T11:48:59;60.37;;;33.87;;
1404;SDS011;697;51.114;6.542;2023-02-23T11:51:30;51.93;;;33.33;;
1404;SDS011;697;51.114;6.542;2023-02-23T11:53:59;54.80;;;33.33;;
1404;SDS011;697;51.114;6.542;2023-02-23T11:56:27;56.83;;;34.07;;
1404;SDS011;697;51.114;6.542;2023-02-23T11:58:58;59.07;;;34.23;;
1404;SDS011;697;51.114;6.542;2023-02-23T12:01:34;60.83;;;36.60;;
1404;SDS011;697;51.114;6.542;2023-02-23T12:04:09;48.30;;;29.73;;
1404;SDS011;697;51.114;6.542;2023-02-23T12:06:49;50.70;;;29.30;;
1404;SDS011;697;51.114;6.542;2023-02-23T12:09:18;43.30;;;27.23;;
1404;SDS011;697;51.114;6.542;2023-02-23T12:11:50;47.00;;;28.17;;
1404;SDS011;697;51.114;6.542;2023-02-23T12:14:28;48.67;;;29.60;;
1404;SDS011;697;51.114;6.542;2023-02-23T12:17:01;47.50;;;31.10;;
1404;SDS011;697;51.114;6.542;2023-02-23T12:19:33;42.87;;;25.00;;
1404;SDS011;697;51.114;6.542;2023-02-23T12:22:04;46.60;;;32.03;;
1404;SDS011;697;51.114;6.542;2023-02-23T12:24:43;48.53;;;29.63;;
1404;SDS011;697;51.114;6.542;2023-02-23T12:27:14;41.07;;;28.17;;
1404;SDS011;697;51.114;6.542;2023-02-23T12:29:47;43.90;;;27.17;;
1404;SDS011;697;51.114;6.542;2023-02-23T12:32:25;42.13;;;26.20;;
1404;SDS011;697;51.114;6.542;2023-02-23T12:35:03;37.20;;;24.20;;
1404;SDS011;697;51.114;6.542;2023-02-23T12:40:13;31.90;;;19.93;;
1404;SDS011;697;51.114;6.542;2023-02-23T12:42:42;28.13;;;19.90;;
1404;SDS011;697;51.114;6.542;2023-02-23T12:45:18;32.80;;;19.80;;
1404;SDS011;697;51.114;6.542;2023-02-23T12:47:51;27.87;;;18.10;;
1404;SDS011;697;51.114;6.542;2023-02-23T12:50:26;28.00;;;20.23;;
1404;SDS011;697;51.114;6.542;2023-02-23T12:52:56;25.30;;;17.80;;
1404;SDS011;697;51.114;6.542;2023-02-23T12:55:32;26.50;;;16.77;;
1404;SDS011;697;51.114;6.542;2023-02-23T12:58:06;23.27;;;16.27;;
1404;SDS011;697;51.114;6.542;2023-02-23T13:00:46;25.43;;;17.67;;
1404;SDS011;697;51.114;6.542;2023-02-23T13:03:27;28.67;;;18.50;;
1404;SDS011;697;51.114;6.542;2023-02-23T13:06:20;26.77;;;17.17;;
1404;SDS011;697;51.114;6.542;2023-02-23T13:09:01;26.37;;;17.47;;
1404;SDS011;697;51.114;6.542;2023-02-23T13:11:42;27.67;;;18.60;;
1404;SDS011;697;51.114;6.542;2023-02-23T13:14:19;27.23;;;18.40;;
1404;SDS011;697;51.114;6.542;2023-02-23T13:16:51;27.33;;;18.40;;
1404;SDS011;697;51.114;6.542;2023-02-23T13:19:22;27.77;;;17.90;;
1404;SDS011;697;51.114;6.542;2023-02-23T13:21:57;27.97;;;18.43;;
1404;SDS011;697;51.114;6.542;2023-02-23T13:24:34;26.70;;;16.60;;
1404;SDS011;697;51.114;6.542;2023-02-23T13:27:04;25.73;;;18.10;;
1404;SDS011;697;51.114;6.542;2023-02-23T13:29:40;27.40;;;17.27;;
1404;SDS011;697;51.114;6.542;2023-02-23T13:32:09;23.97;;;17.80;;
1404;SDS011;697;51.114;6.542;2023-02-23T13:34:40;23.77;;;18.10;;
1404;SDS011;697;51.114;6.542;2023-02-23T13:37:11;23.70;;;17.80;;
1404;SDS011;697;51.114;6.542;2023-02-23T13:39:42;22.40;;;17.30;;
1404;SDS011;697;51.114;6.542;2023-02-23T13:42:17;24.10;;;18.10;;
1404;SDS011;697;51.114;6.542;2023-02-23T13:44:53;22.17;;;17.50;;
1404;SDS011;697;51.114;6.542;2023-02-23T13:47:31;24.33;;;18.37;;
1404;SDS011;697;51.114;6.542;2023-02-23T13:50:06;24.43;;;18.03;;
1404;SDS011;697;51.114;6.542;2023-02-23T13:53:01;25.97;;;19.30;;
1404;SDS011;697;51.114;6.542;2023-02-23T13:55:33;26.17;;;18.70;;
1404;SDS011;697;51.114;6.542;2023-02-23T13:58:10;28.13;;;18.10;;
1404;SDS011;697;51.114;6.542;2023-02-23T14:00:40;22.67;;;17.57;;
1404;SDS011;697;51.114;6.542;2023-02-23T14:03:07;27.30;;;20.33;;
1404;SDS011;697;51.114;6.542;2023-02-23T14:05:55;27.37;;;19.93;;
1404;SDS011;697;51.114;6.542;2023-02-23T14:08:28;30.40;;;20.63;;
1404;SDS011;697;51.114;6.542;2023-02-23T14:10:58;31.33;;;20.20;;
1404;SDS011;697;51.114;6.542;2023-02-23T14:13:28;30.00;;;20.57;;
1404;SDS011;697;51.114;6.542;2023-02-23T14:16:14;29.63;;;20.43;;
1404;SDS011;697;51.114;6.542;2023-02-23T14:18:50;33.50;;;21.43;;
1404;SDS011;697;51.114;6.542;2023-02-23T14:21:27;35.17;;;22.33;;
1404;SDS011;697;51.114;6.542;2023-02-23T14:24:12;34.37;;;21.70;;
1404;SDS011;697;51.114;6.542;2023-02-23T14:29:37;40.57;;;22.33;;
1404;SDS011;697;51.114;6.542;2023-02-23T14:34:55;37.60;;;24.00;;
1404;SDS011;697;51.114;6.542;2023-02-23T14:37:24;39.87;;;25.80;;
1404;SDS011;697;51.114;6.542;2023-02-23T14:39:59;39.77;;;26.93;;
1404;SDS011;697;51.114;6.542;2023-02-23T14:45:14;43.43;;;27.90;;
1404;SDS011;697;51.114;6.542;2023-02-23T14:50:23;41.87;;;29.80;;
1404;SDS011;697;51.114;6.542;2023-02-23T14:52:51;42.77;;;27.00;;
1404;SDS011;697;51.114;6.542;2023-02-23T14:55:23;43.83;;;31.43;;
1404;SDS011;697;51.114;6.542;2023-02-23T14:57:53;43.50;;;27.07;;
1404;SDS011;697;51.114;6.542;2023-02-23T15:00:22;39.83;;;29.00;;
1404;SDS011;697;51.114;6.542;2023-02-23T15:02:59;37.37;;;26.23;;
1404;SDS011;697;51.114;6.542;2023-02-23T15:05:29;35.33;;;26.17;;
1404;SDS011;697;51.114;6.542;2023-02-23T15:07:58;36.00;;;24.53;;
1404;SDS011;697;51.114;6.542;2023-02-23T15:10:31;35.40;;;24.47;;
1404;SDS011;697;51.114;6.542;2023-02-23T15:13:00;36.40;;;23.13;;
1404;SDS011;697;51.114;6.542;2023-02-23T15:15:34;33.77;;;23.63;;
1404;SDS011;697;51.114;6.542;2023-02-23T15:18:04;28.97;;;20.67;;
1404;SDS011;697;51.114;6.542;2023-02-23T15:20:32;32.50;;;23.10;;
1404;SDS011;697;51.114;6.542;2023-02-23T15:23:00;33.37;;;24.47;;
1404;SDS011;697;51.114;6.542;2023-02-23T15:25:33;33.30;;;22.60;;
1404;SDS011;697;51.114;6.542;2023-02-23T15:30:50;33.93;;;23.40;;
1404;SDS011;697;51.114;6.542;2023-02-23T15:33:18;33.47;;;22.17;;
1404;SDS011;697;51.114;6.542;2023-02-23T15:35:53;34.63;;;22.83;;
1404;SDS011;697;51.114;6.542;2023-02-23T15:38:25;39.33;;;22.03;;
1404;SDS011;697;51.114;6.542;2023-02-23T15:40:58;37.13;;;23.87;;
1404;SDS011;697;51.114;6.542;2023-02-23T15:43:29;37.03;;;24.57;;
1404;SDS011;697;51.114;6.542;2023-02-23T15:46:01;36.57;;;23.33;;
1404;SDS011;697;51.114;6.542;2023-02-23T15:48:35;35.97;;;23.53;;
1404;SDS011;697;51.114;6.542;2023-02-23T15:51:13;33.40;;;22.93;;
1404;SDS011;697;51.114;6.542;2023-02-23T15:53:56;31.30;;;21.23;;
1404;SDS011;697;51.114;6.542;2023-02-23T15:56:27;35.23;;;21.90;;
1404;SDS011;697;51.114;6.542;2023-02-23T15:58:56;33.37;;;20.80;;
1404;SDS011;697;51.114;6.542;2023-02-23T16:01:27;32.97;;;22.10;;